sensor_id;sensor_type;location;lat;lon;timestamp;temperature;humidity
17529;DHT22;8882;53.192;8.184;2022-12-13T05:32:29;-3.40;99.90
17529;DHT22;8882;53.192;8.184;2022-12-13T05:34:55;-3.40;99.90
17529;DHT22;8882;53.192;8.184;2022-12-13T05:37:20;-3.30;99.90
17529;DHT22;8882;53.192;8.184;2022-12-13T05:39:46;-3.40;99.90
17529;DHT22;8882;53.192;8.184;2022-12-13T05:42:11;-3.40;99.90
17529;DHT22;8882;53.192;8.184;2022-12-13T05:44:37;-3.40;99.90
17529;DHT22;8882;53.192;8.184;2022-12-13T05:47:02;-3.40;99.90
17529;DHT22;8882;53.192;8.184;2022-12-13T05:49:28;-3.40;99.90
17529;DHT22;8882;53.192;8.184;2022-12-13T05:51:53;-3.50;99.90
17529;DHT22;8882;53.192;8.184;2022-12-13T05:54:19;-3.60;99.90
17529;DHT22;8882;53.192;8.184;2022-12-13T05:56:44;-3.60;99.90
17529;DHT22;8882;53.192;8.184;2022-12-13T05:59:10;-3.50;99.90
17529;DHT22;8882;53.192;8.184;2022-12-13T06:01:35;-3.50;99.90
17529;DHT22;8882;53.192;8.184;2022-12-13T06:04:01;-3.50;99.90
17529;DHT22;8882;53.192;8.184;2022-12-13T06:06:27;-3.60;99.90
17529;DHT22;8882;53.192;8.184;2022-12-13T06:08:52;-3.50;99.90
17529;DHT22;8882;53.192;8.184;2022-12-13T06:11:18;-3.40;99.90
17529;DHT22;8882;53.192;8.184;2022-12-13T06:13:43;-3.40;99.90
17529;DHT22;8882;53.192;8.184;2022-12-13T06:16:11;-3.40;99.90
17529;DHT22;8882;53.192;8.184;2022-12-13T06:18:37;-3.40;99.90
17529;DHT22;8882;53.192;8.184;2022-12-13T06:21:04;-3.40;99.90
17529;DHT22;8882;53.192;8.184;2022-12-13T06:23:32;-3.40;99.90
17529;DHT22;8882;53.192;8.184;2022-12-13T06:25:58;-3.40;99.90
17529;DHT22;8882;53.192;8.184;2022-12-13T06:28:23;-3.40;99.90
17529;DHT22;8882;53.192;8.184;2022-12-13T06:30:49;-3.50;99.90
17529;DHT22;8882;53.192;8.184;2022-12-13T06:33:18;-3.60;99.90
17529;DHT22;8882;53.192;8.184;2022-12-13T06:35:44;-3.60;99.90
17529;DHT22;8882;53.192;8.184;2022-12-13T06:38:10;-3.60;99.90
17529;DHT22;8882;53.192;8.184;2022-12-13T06:40:35;-3.60;99.90
17529;DHT22;8882;53.192;8.184;2022-12-13T06:43:01;-3.60;99.90
17529;DHT22;8882;53.192;8.184;2022-12-13T06:45:26;-3.60;99.90
17529;DHT22;8882;53.192;8.184;2022-12-13T06:47:52;-3.60;99.90
17529;DHT22;8882;53.192;8.184;2022-12-13T06:50:17;-3.60;99.90
17529;DHT22;8882;53.192;8.184;2022-12-13T06:52:45;-3.70;99.90
17529;DHT22;8882;53.192;8.184;2022-12-13T06:55:11;-3.60;99.90
17529;DHT22;8882;53.192;8.184;2022-12-13T06:57:36;-3.60;99.90
17529;DHT22;8882;53.192;8.184;2022-12-13T07:00:03;-3.60;99.90
17529;DHT22;8882;53.192;8.184;2022-12-13T07:02:29;-3.60;99.90
17529;DHT22;8882;53.192;8.184;2022-12-13T07:04:55;-3.50;99.90
17529;DHT22;8882;53.192;8.184;2022-12-13T07:07:21;-3.60;99.90
17529;DHT22;8882;53.192;8.184;2022-12-13T07:09:46;-3.60;99.90
17529;DHT22;8882;53.192;8.184;2022-12-13T07:12:12;-3.50;99.90
17529;DHT22;8882;53.192;8.184;2022-12-13T07:14:37;-3.50;99.90
17529;DHT22;8882;53.192;8.184;2022-12-13T07:17:03;-3.50;99.90
17529;DHT22;8882;53.192;8.184;2022-12-13T07:19:29;-3.50;99.90
17529;DHT22;8882;53.192;8.184;2022-12-13T07:21:54;-3.50;99.90
17529;DHT22;8882;53.192;8.184;2022-12-13T07:24:20;-3.50;99.90
17529;DHT22;8882;53.192;8.184;2022-12-13T07:26:46;-3.50;99.90
17529;DHT22;8882;53.192;8.184;2022-12-13T07:29:11;-3.40;99.90
17529;DHT22;8882;53.192;8.184;2022-12-13T07:31:37;-3.40;99.90
17529;DHT22;8882;53.192;8.184;2022-12-13T07:34:02;-3.40;99.90
17529;DHT22;8882;53.192;8.184;2022-12-13T07:36:28;-3.60;99.90
17529;DHT22;8882;53.192;8.184;2022-12-13T07:38:55;-3.60;99.90
17529;DHT22;8882;53.192;8.184;2022-12-13T07:41:22;-3.60;99.90
17529;DHT22;8882;53.192;8.184;2022-12-13T07:43:48;-3.60;99.90
17529;DHT22;8882;53.192;8.184;2022-12-13T07:46:14;-3.60;99.90
17529;DHT22;8882;53.192;8.184;2022-12-13T07:48:39;-3.50;99.90
17529;DHT22;8882;53.192;8.184;2022-12-13T07:51:07;-3.10;99.90
17529;DHT22;8882;53.192;8.184;2022-12-13T07:53:35;-3.10;99.90
17529;DHT22;8882;53.192;8.184;2022-12-13T07:56:05;-3.20;99.90
17529;DHT22;8882;53.192;8.184;2022-12-13T07:58:31;-3.40;99.90
17529;DHT22;8882;53.192;8.184;2022-12-13T08:01:05;-3.50;99.90
17529;DHT22;8882;53.192;8.184;2022-12-13T08:03:32;-3.60;99.90
17529;DHT22;8882;53.192;8.184;2022-12-13T08:06:02;-3.70;99.90
17529;DHT22;8882;53.192;8.184;2022-12-13T08:08:28;-3.80;99.90
17529;DHT22;8882;53.192;8.184;2022-12-13T08:10:54;-3.80;99.90
17529;DHT22;8882;53.192;8.184;2022-12-13T08:13:20;-3.80;99.90
17529;DHT22;8882;53.192;8.184;2022-12-13T08:15:45;-3.80;99.90
17529;DHT22;8882;53.192;8.184;2022-12-13T08:18:11;-3.80;99.90
17529;DHT22;8882;53.192;8.184;2022-12-13T08:20:36;-3.70;99.90
17529;DHT22;8882;53.192;8.184;2022-12-13T08:23:02;-3.70;99.90
17529;DHT22;8882;53.192;8.184;2022-12-13T08:25:28;-3.70;99.90
17529;DHT22;8882;53.192;8.184;2022-12-13T08:27:54;-3.60;99.90
17529;DHT22;8882;53.192;8.184;2022-12-13T08:30:19;-3.60;99.90
17529;DHT22;8882;53.192;8.184;2022-12-13T08:32:45;-3.60;99.90
17529;DHT22;8882;53.192;8.184;2022-12-13T08:35:10;-3.60;99.90
17529;DHT22;8882;53.192;8.184;2022-12-13T08:37:36;-3.50;99.90
17529;DHT22;8882;53.192;8.184;2022-12-13T08:40:01;-3.60;99.90
17529;DHT22;8882;53.192;8.184;2022-12-13T08:42:28;-3.60;99.90
17529;DHT22;8882;53.192;8.184;2022-12-13T08:44:53;-3.50;99.90
17529;DHT22;8882;53.192;8.184;2022-12-13T08:47:22;-3.50;99.90
17529;DHT22;8882;53.192;8.184;2022-12-13T08:49:47;-3.50;99.90
17529;DHT22;8882;53.192;8.184;2022-12-13T08:52:13;-3.40;99.90
17529;DHT22;8882;53.192;8.184;2022-12-13T08:54:38;-3.40;99.90
17529;DHT22;8882;53.192;8.184;2022-12-13T08:57:04;-3.40;99.90
17529;DHT22;8882;53.192;8.184;2022-12-13T08:59:30;-3.30;99.90
17529;DHT22;8882;53.192;8.184;2022-12-13T09:01:55;-3.40;99.90
17529;DHT22;8882;53.192;8.184;2022-12-13T09:04:21;-3.40;99.90
17529;DHT22;8882;53.192;8.184;2022-12-13T09:06:46;-3.40;99.90
17529;DHT22;8882;53.192;8.184;2022-12-13T09:09:12;-3.40;99.90
17529;DHT22;8882;53.192;8.184;2022-12-13T09:11:38;-3.40;99.90
17529;DHT22;8882;53.192;8.184;2022-12-13T09:14:05;-3.40;99.90
17529;DHT22;8882;53.192;8.184;2022-12-13T09:16:31;-3.40;99.90
17529;DHT22;8882;53.192;8.184;2022-12-13T09:19:00;-3.40;99.90
17529;DHT22;8882;53.192;8.184;2022-12-13T09:21:26;-3.40;99.90
17529;DHT22;8882;53.192;8.184;2022-12-13T09:23:51;-3.00;99.90
17529;DHT22;8882;53.192;8.184;2022-12-13T09:26:18;-2.80;99.90
17529;DHT22;8882;53.192;8.184;2022-12-13T09:28:43;-2.80;99.90
17529;DHT22;8882;53.192;8.184;2022-12-13T09:31:11;-2.80;99.90
17529;DHT22;8882;53.192;8.184;2022-12-13T09:33:38;-3.00;99.90
17529;DHT22;8882;53.192;8.184;2022-12-13T09:36:04;-3.30;99.90
17529;DHT22;8882;53.192;8.184;2022-12-13T09:38:32;-3.50;99.90
17529;DHT22;8882;53.192;8.184;2022-12-13T09:40:59;-3.60;99.90
17529;DHT22;8882;53.192;8.184;2022-12-13T09:43:32;-3.60;99.90
17529;DHT22;8882;53.192;8.184;2022-12-13T09:46:03;-3.50;99.90
17529;DHT22;8882;53.192;8.184;2022-12-13T09:48:29;-3.60;99.90
17529;DHT22;8882;53.192;8.184;2022-12-13T09:50:55;-3.50;99.90
17529;DHT22;8882;53.192;8.184;2022-12-13T09:53:20;-3.50;99.90
17529;DHT22;8882;53.192;8.184;2022-12-13T09:55:47;-3.60;99.90
17529;DHT22;8882;53.192;8.184;2022-12-13T09:58:27;-3.60;99.90
17529;DHT22;8882;53.192;8.184;2022-12-13T10:00:55;-3.70;99.90
17529;DHT22;8882;53.192;8.184;2022-12-13T10:03:22;-3.70;99.90
17529;DHT22;8882;53.192;8.184;2022-12-13T10:06:13;-3.60;99.90
17529;DHT22;8882;53.192;8.184;2022-12-13T10:08:44;-3.50;99.90
17529;DHT22;8882;53.192;8.184;2022-12-13T10:11:14;-3.40;99.90
17529;DHT22;8882;53.192;8.184;2022-12-13T10:14:11;-3.50;99.90
17529;DHT22;8882;53.192;8.184;2022-12-13T10:16:44;-3.50;99.90
17529;DHT22;8882;53.192;8.184;2022-12-13T10:19:34;-3.50;99.90
17529;DHT22;8882;53.192;8.184;2022-12-13T10:22:02;-3.40;99.90
17529;DHT22;8882;53.192;8.184;2022-12-13T10:25:00;-3.40;99.90
17529;DHT22;8882;53.192;8.184;2022-12-13T10:35:17;-3.30;99.90
17529;DHT22;8882;53.192;8.184;2022-12-13T10:37:44;-3.30;99.90
17529;DHT22;8882;53.192;8.184;2022-12-13T10:40:26;-3.30;99.90
17529;DHT22;8882;53.192;8.184;2022-12-13T10:43:30;-3.20;99.90
17529;DHT22;8882;53.192;8.184;2022-12-13T10:48:48;-3.30;99.90
17529;DHT22;8882;53.192;8.184;2022-12-13T10:51:17;-3.20;99.90
17529;DHT22;8882;53.192;8.184;2022-12-13T10:53:50;-3.10;99.90
17529;DHT22;8882;53.192;8.184;2022-12-13T10:56:17;-3.00;99.90
17529;DHT22;8882;53.192;8.184;2022-12-13T10:58:44;-2.90;99.90
17529;DHT22;8882;53.192;8.184;2022-12-13T11:01:20;-2.90;99.90
17529;DHT22;8882;53.192;8.184;2022-12-13T11:04:18;-2.90;99.90
17529;DHT22;8882;53.192;8.184;2022-12-13T11:06:46;-2.90;99.90
17529;DHT22;8882;53.192;8.184;2022-12-13T11:09:25;-2.80;99.90
17529;DHT22;8882;53.192;8.184;2022-12-13T11:11:52;-2.80;99.90
17529;DHT22;8882;53.192;8.184;2022-12-13T11:14:20;-2.90;99.90
17529;DHT22;8882;53.192;8.184;2022-12-13T11:16:55;-2.80;99.90
17529;DHT22;8882;53.192;8.184;2022-12-13T11:19:37;-2.90;99.90
17529;DHT22;8882;53.192;8.184;2022-12-13T11:22:04;-2.80;99.90
17529;DHT22;8882;53.192;8.184;2022-12-13T11:24:33;-2.80;99.90
17529;DHT22;8882;53.192;8.184;2022-12-13T11:29:50;-2.90;99.90
17529;DHT22;8882;53.192;8.184;2022-12-13T11:38:28;-2.90;99.90
17529;DHT22;8882;53.192;8.184;2022-12-13T11:40:48;-3.00;99.90
17529;DHT22;8882;53.192;8.184;2022-12-13T11:43:27;-2.80;99.90
17529;DHT22;8882;53.192;8.184;2022-12-13T11:45:57;-2.80;99.90
17529;DHT22;8882;53.192;8.184;2022-12-13T11:48:39;-2.80;99.90
17529;DHT22;8882;53.192;8.184;2022-12-13T11:51:08;-2.90;99.90
17529;DHT22;8882;53.192;8.184;2022-12-13T11:53:44;-3.00;99.90
17529;DHT22;8882;53.192;8.184;2022-12-13T11:56:20;-2.80;99.90
17529;DHT22;8882;53.192;8.184;2022-12-13T12:04:30;-2.70;99.90
17529;DHT22;8882;53.192;8.184;2022-12-13T12:07:12;-2.70;99.90
17529;DHT22;8882;53.192;8.184;2022-12-13T12:09:42;-2.60;99.90
17529;DHT22;8882;53.192;8.184;2022-12-13T12:12:33;-2.60;99.90
17529;DHT22;8882;53.192;8.184;2022-12-13T12:17:25;-2.70;99.90
17529;DHT22;8882;53.192;8.184;2022-12-13T12:19:55;-2.70;99.90
17529;DHT22;8882;53.192;8.184;2022-12-13T12:22:32;-2.70;99.90
17529;DHT22;8882;53.192;8.184;2022-12-13T12:25:25;-2.80;99.90
17529;DHT22;8882;53.192;8.184;2022-12-13T12:31:09;-2.60;99.90
17529;DHT22;8882;53.192;8.184;2022-12-13T12:36:50;-2.70;99.90
17529;DHT22;8882;53.192;8.184;2022-12-13T12:42:58;-2.70;99.90
17529;DHT22;8882;53.192;8.184;2022-12-13T12:45:48;-2.70;99.90
17529;DHT22;8882;53.192;8.184;2022-12-13T12:51:32;-2.60;99.90
17529;DHT22;8882;53.192;8.184;2022-12-13T13:00:12;-2.50;99.90
17529;DHT22;8882;53.192;8.184;2022-12-13T13:03:17;-2.40;99.90
17529;DHT22;8882;53.192;8.184;2022-12-13T13:05:53;-2.50;99.90
17529;DHT22;8882;53.192;8.184;2022-12-13T13:08:25;-2.40;99.90
17529;DHT22;8882;53.192;8.184;2022-12-13T13:10:52;-2.40;99.90
17529;DHT22;8882;53.192;8.184;2022-12-13T13:14:03;-2.40;99.90
17529;DHT22;8882;53.192;8.184;2022-12-13T13:16:35;-2.40;99.90
17529;DHT22;8882;53.192;8.184;2022-12-13T13:19:03;-2.50;99.90
17529;DHT22;8882;53.192;8.184;2022-12-13T13:26:41;-2.40;99.90
17529;DHT22;8882;53.192;8.184;2022-12-13T13:32:02;-2.50;99.90
17529;DHT22;8882;53.192;8.184;2022-12-13T13:34:30;-2.40;99.90
17529;DHT22;8882;53.192;8.184;2022-12-13T13:36:58;-2.40;99.90
17529;DHT22;8882;53.192;8.184;2022-12-13T13:49:57;-2.60;99.90
17529;DHT22;8882;53.192;8.184;2022-12-13T13:52:26;-2.50;99.90
17529;DHT22;8882;53.192;8.184;2022-12-13T14:01:11;-2.40;99.90
17529;DHT22;8882;53.192;8.184;2022-12-13T14:12:54;-2.50;99.90
17529;DHT22;8882;53.192;8.184;2022-12-13T14:21:54;-2.50;99.90
17529;DHT22;8882;53.192;8.184;2022-12-13T14:24:44;-2.50;99.90
17529;DHT22;8882;53.192;8.184;2022-12-13T14:27:30;-2.60;99.90
17529;DHT22;8882;53.192;8.184;2022-12-13T14:29:58;-2.50;99.90
17529;DHT22;8882;53.192;8.184;2022-12-13T14:32:29;-2.50;99.90
17529;DHT22;8882;53.192;8.184;2022-12-13T14:34:56;-2.60;99.90
17529;DHT22;8882;53.192;8.184;2022-12-13T14:37:27;-2.60;99.90
17529;DHT22;8882;53.192;8.184;2022-12-13T14:39:55;-2.50;99.90
17529;DHT22;8882;53.192;8.184;2022-12-13T14:42:32;-2.60;99.90
17529;DHT22;8882;53.192;8.184;2022-12-13T14:45:15;-2.60;99.90
17529;DHT22;8882;53.192;8.184;2022-12-13T14:47:46;-2.70;99.90
17529;DHT22;8882;53.192;8.184;2022-12-13T14:50:15;-2.60;99.90
17529;DHT22;8882;53.192;8.184;2022-12-13T14:52:43;-2.50;99.90
17529;DHT22;8882;53.192;8.184;2022-12-13T14:55:28;-2.60;99.90
17529;DHT22;8882;53.192;8.184;2022-12-13T14:57:56;-2.70;99.90
17529;DHT22;8882;53.192;8.184;2022-12-13T15:00:40;-2.70;99.90
17529;DHT22;8882;53.192;8.184;2022-12-13T15:03:06;-2.70;99.90
17529;DHT22;8882;53.192;8.184;2022-12-13T15:05:34;-2.90;99.90
17529;DHT22;8882;53.192;8.184;2022-12-13T15:08:02;-2.90;99.90
17529;DHT22;8882;53.192;8.184;2022-12-13T15:10:36;-2.90;99.90
17529;DHT22;8882;53.192;8.184;2022-12-13T15:13:03;-2.90;99.90
17529;DHT22;8882;53.192;8.184;2022-12-13T15:15:31;-2.90;99.90
17529;DHT22;8882;53.192;8.184;2022-12-13T15:18:24;-2.90;99.90
17529;DHT22;8882;53.192;8.184;2022-12-13T15:20:52;-2.90;99.90
17529;DHT22;8882;53.192;8.184;2022-12-13T15:23:22;-2.80;99.90
17529;DHT22;8882;53.192;8.184;2022-12-13T15:26:13;-2.80;99.90
17529;DHT22;8882;53.192;8.184;2022-12-13T15:28:41;-2.80;99.90
17529;DHT22;8882;53.192;8.184;2022-12-13T15:31:08;-2.80;99.90
17529;DHT22;8882;53.192;8.184;2022-12-13T15:33:34;-2.70;99.90
17529;DHT22;8882;53.192;8.184;2022-12-13T15:36:07;-2.70;99.90
17529;DHT22;8882;53.192;8.184;2022-12-13T15:38:36;-2.70;99.90
17529;DHT22;8882;53.192;8.184;2022-12-13T15:41:02;-2.60;99.90
17529;DHT22;8882;53.192;8.184;2022-12-13T15:43:40;-2.60;99.90
17529;DHT22;8882;53.192;8.184;2022-12-13T15:46:07;-2.60;99.90
17529;DHT22;8882;53.192;8.184;2022-12-13T15:48:39;-2.60;99.90
17529;DHT22;8882;53.192;8.184;2022-12-13T15:53:34;-2.60;99.90
17529;DHT22;8882;53.192;8.184;2022-12-13T15:56:00;-2.60;99.90
17529;DHT22;8882;53.192;8.184;2022-12-13T15:58:35;-2.60;99.90
17529;DHT22;8882;53.192;8.184;2022-12-13T16:01:01;-2.50;99.90
17529;DHT22;8882;53.192;8.184;2022-12-13T16:03:41;-2.50;99.90
17529;DHT22;8882;53.192;8.184;2022-12-13T16:06:07;-2.50;99.90
17529;DHT22;8882;53.192;8.184;2022-12-13T16:08:37;-2.50;99.90
17529;DHT22;8882;53.192;8.184;2022-12-13T16:11:04;-2.50;99.90
17529;DHT22;8882;53.192;8.184;2022-12-13T16:13:33;-2.60;99.90
17529;DHT22;8882;53.192;8.184;2022-12-13T16:16:01;-2.60;99.90
17529;DHT22;8882;53.192;8.184;2022-12-13T16:18:57;-2.60;99.90
17529;DHT22;8882;53.192;8.184;2022-12-13T16:21:24;-2.60;99.90
17529;DHT22;8882;53.192;8.184;2022-12-13T16:23:49;-2.60;99.90
17529;DHT22;8882;53.192;8.184;2022-12-13T16:26:23;-2.60;99.90
17529;DHT22;8882;53.192;8.184;2022-12-13T16:28:50;-2.60;99.90
17529;DHT22;8882;53.192;8.184;2022-12-13T16:33:42;-2.70;99.90
17529;DHT22;8882;53.192;8.184;2022-12-13T16:36:09;-2.60;99.90
17529;DHT22;8882;53.192;8.184;2022-12-13T16:38:35;-2.50;99.90
17529;DHT22;8882;53.192;8.184;2022-12-13T16:41:01;-2.50;99.90
17529;DHT22;8882;53.192;8.184;2022-12-13T16:43:27;-2.60;99.90
17529;DHT22;8882;53.192;8.184;2022-12-13T16:45:54;-2.70;99.90
17529;DHT22;8882;53.192;8.184;2022-12-13T16:48:20;-2.80;99.90
17529;DHT22;8882;53.192;8.184;2022-12-13T16:50:48;-2.80;99.90
17529;DHT22;8882;53.192;8.184;2022-12-13T16:53:17;-2.90;99.90
17529;DHT22;8882;53.192;8.184;2022-12-13T16:55:43;-2.90;99.90
17529;DHT22;8882;53.192;8.184;2022-12-13T16:58:12;-3.00;99.90
17529;DHT22;8882;53.192;8.184;2022-12-13T17:00:39;-3.10;99.90
17529;DHT22;8882;53.192;8.184;2022-12-13T17:03:05;-3.10;99.90
17529;DHT22;8882;53.192;8.184;2022-12-13T17:05:32;-3.10;99.90
17529;DHT22;8882;53.192;8.184;2022-12-13T17:07:58;-2.90;99.90
17529;DHT22;8882;53.192;8.184;2022-12-13T17:10:24;-2.70;99.90
17529;DHT22;8882;53.192;8.184;2022-12-13T17:12:50;-2.60;99.90
17529;DHT22;8882;53.192;8.184;2022-12-13T17:15:15;-2.60;99.90
17529;DHT22;8882;53.192;8.184;2022-12-13T17:17:43;-2.60;99.90
17529;DHT22;8882;53.192;8.184;2022-12-13T17:20:11;-2.60;99.90
17529;DHT22;8882;53.192;8.184;2022-12-13T17:22:39;-2.60;99.90
17529;DHT22;8882;53.192;8.184;2022-12-13T17:25:05;-2.60;99.90
17529;DHT22;8882;53.192;8.184;2022-12-13T17:27:30;-2.60;99.90
17529;DHT22;8882;53.192;8.184;2022-12-13T17:29:56;-2.70;99.90
17529;DHT22;8882;53.192;8.184;2022-12-13T17:32:22;-2.70;99.90
17529;DHT22;8882;53.192;8.184;2022-12-13T17:34:49;-2.70;99.90
17529;DHT22;8882;53.192;8.184;2022-12-13T17:37:14;-2.70;99.90
17529;DHT22;8882;53.192;8.184;2022-12-13T17:39:40;-2.70;99.90
17529;DHT22;8882;53.192;8.184;2022-12-13T17:42:05;-2.80;99.90
17529;DHT22;8882;53.192;8.184;2022-12-13T17:44:31;-2.90;99.90
17529;DHT22;8882;53.192;8.184;2022-12-13T17:46:56;-2.90;99.90
17529;DHT22;8882;53.192;8.184;2022-12-13T17:49:23;-2.90;99.90
17529;DHT22;8882;53.192;8.184;2022-12-13T17:51:49;-2.90;99.90
17529;DHT22;8882;53.192;8.184;2022-12-13T17:54:17;-2.90;99.90
17529;DHT22;8882;53.192;8.184;2022-12-13T17:56:42;-2.90;99.90
17529;DHT22;8882;53.192;8.184;2022-12-13T17:59:10;-2.90;99.90
17529;DHT22;8882;53.192;8.184;2022-12-13T18:01:35;-2.90;99.90
17529;DHT22;8882;53.192;8.184;2022-12-13T18:04:01;-2.90;99.90
17529;DHT22;8882;53.192;8.184;2022-12-13T18:06:26;-2.90;99.90
17529;DHT22;8882;53.192;8.184;2022-12-13T18:08:52;-2.90;99.90
17529;DHT22;8882;53.192;8.184;2022-12-13T18:11:19;-2.90;99.90
17529;DHT22;8882;53.192;8.184;2022-12-13T18:13:44;-2.90;99.90
17529;DHT22;8882;53.192;8.184;2022-12-13T18:16:14;-2.90;99.90
17529;DHT22;8882;53.192;8.184;2022-12-13T18:18:40;-3.00;99.90
17529;DHT22;8882;53.192;8.184;2022-12-13T18:21:08;-3.00;99.90
17529;DHT22;8882;53.192;8.184;2022-12-13T18:23:35;-3.10;99.90
17529;DHT22;8882;53.192;8.184;2022-12-13T18:26:03;-3.10;99.90
17529;DHT22;8882;53.192;8.184;2022-12-13T18:28:29;-3.00;99.90
17529;DHT22;8882;53.192;8.184;2022-12-13T18:31:03;-3.00;99.90
17529;DHT22;8882;53.192;8.184;2022-12-13T18:33:29;-3.00;99.90
17529;DHT22;8882;53.192;8.184;2022-12-13T18:35:55;-3.00;99.90
17529;DHT22;8882;53.192;8.184;2022-12-13T18:38:21;-3.00;99.90
17529;DHT22;8882;53.192;8.184;2022-12-13T18:40:48;-3.10;99.90
17529;DHT22;8882;53.192;8.184;2022-12-13T18:43:15;-3.10;99.90
17529;DHT22;8882;53.192;8.184;2022-12-13T18:45:40;-3.10;99.90
17529;DHT22;8882;53.192;8.184;2022-12-13T18:48:06;-3.10;99.90
17529;DHT22;8882;53.192;8.184;2022-12-13T18:50:32;-3.20;99.90
17529;DHT22;8882;53.192;8.184;2022-12-13T18:52:58;-3.20;99.90
17529;DHT22;8882;53.192;8.184;2022-12-13T18:55:23;-3.20;99.90
17529;DHT22;8882;53.192;8.184;2022-12-13T18:57:50;-3.20;99.90
17529;DHT22;8882;53.192;8.184;2022-12-13T19:00:16;-3.20;99.90
17529;DHT22;8882;53.192;8.184;2022-12-13T19:02:42;-3.30;99.90
17529;DHT22;8882;53.192;8.184;2022-12-13T19:05:07;-3.30;99.90
17529;DHT22;8882;53.192;8.184;2022-12-13T19:07:33;-3.20;99.90
17529;DHT22;8882;53.192;8.184;2022-12-13T19:09:58;-3.20;99.90
17529;DHT22;8882;53.192;8.184;2022-12-13T19:12:24;-3.30;99.90
17529;DHT22;8882;53.192;8.184;2022-12-13T19:14:49;-3.30;99.90
17529;DHT22;8882;53.192;8.184;2022-12-13T19:17:15;-3.30;99.90
17529;DHT22;8882;53.192;8.184;2022-12-13T19:19:40;-3.30;99.90
17529;DHT22;8882;53.192;8.184;2022-12-13T19:22:06;-3.40;99.90
17529;DHT22;8882;53.192;8.184;2022-12-13T19:24:31;-3.40;99.90
17529;DHT22;8882;53.192;8.184;2022-12-13T19:26:57;-3.40;99.90
17529;DHT22;8882;53.192;8.184;2022-12-13T19:29:22;-3.40;99.90
17529;DHT22;8882;53.192;8.184;2022-12-13T19:31:49;-3.50;99.90
17529;DHT22;8882;53.192;8.184;2022-12-13T19:34:14;-3.40;99.90
17529;DHT22;8882;53.192;8.184;2022-12-13T19:36:40;-3.40;99.90
17529;DHT22;8882;53.192;8.184;2022-12-13T19:39:05;-3.40;99.90
17529;DHT22;8882;53.192;8.184;2022-12-13T19:41:31;-3.40;99.90
17529;DHT22;8882;53.192;8.184;2022-12-13T19:43:57;-3.40;99.90
17529;DHT22;8882;53.192;8.184;2022-12-13T19:46:24;-3.40;99.90
17529;DHT22;8882;53.192;8.184;2022-12-13T19:48:50;-3.40;99.90
17529;DHT22;8882;53.192;8.184;2022-12-13T19:51:15;-3.40;99.90
17529;DHT22;8882;53.192;8.184;2022-12-13T19:53:41;-3.30;99.90
17529;DHT22;8882;53.192;8.184;2022-12-13T19:56:11;-3.40;99.90
17529;DHT22;8882;53.192;8.184;2022-12-13T19:58:37;-3.40;99.90
17529;DHT22;8882;53.192;8.184;2022-12-13T20:01:04;-3.30;99.90
17529;DHT22;8882;53.192;8.184;2022-12-13T20:03:31;-3.30;99.90
17529;DHT22;8882;53.192;8.184;2022-12-13T20:05:58;-3.30;99.90
17529;DHT22;8882;53.192;8.184;2022-12-13T20:08:24;-3.30;99.90
17529;DHT22;8882;53.192;8.184;2022-12-13T20:10:59;-3.30;99.90
17529;DHT22;8882;53.192;8.184;2022-12-13T20:13:25;-3.30;99.90
17529;DHT22;8882;53.192;8.184;2022-12-13T20:15:51;-3.40;99.90
17529;DHT22;8882;53.192;8.184;2022-12-13T20:18:16;-3.40;99.90
17529;DHT22;8882;53.192;8.184;2022-12-13T20:20:42;-3.50;99.90
17529;DHT22;8882;53.192;8.184;2022-12-13T20:23:08;-3.50;99.90
17529;DHT22;8882;53.192;8.184;2022-12-13T20:25:33;-3.50;99.90
17529;DHT22;8882;53.192;8.184;2022-12-13T20:27:59;-3.50;99.90
17529;DHT22;8882;53.192;8.184;2022-12-13T20:30:24;-3.50;99.90
17529;DHT22;8882;53.192;8.184;2022-12-13T20:32:50;-3.50;99.90
17529;DHT22;8882;53.192;8.184;2022-12-13T20:35:16;-3.40;99.90
17529;DHT22;8882;53.192;8.184;2022-12-13T20:37:42;-3.40;99.90
17529;DHT22;8882;53.192;8.184;2022-12-13T20:40:08;-3.40;99.90
17529;DHT22;8882;53.192;8.184;2022-12-13T20:42:33;-3.40;99.90
17529;DHT22;8882;53.192;8.184;2022-12-13T20:44:59;-3.40;99.90
17529;DHT22;8882;53.192;8.184;2022-12-13T20:47:25;-3.40;99.90
17529;DHT22;8882;53.192;8.184;2022-12-13T20:49:50;-3.40;99.90
17529;DHT22;8882;53.192;8.184;2022-12-13T20:52:16;-3.40;99.90
17529;DHT22;8882;53.192;8.184;2022-12-13T20:54:42;-3.40;99.90
17529;DHT22;8882;53.192;8.184;2022-12-13T20:57:07;-3.50;99.90
17529;DHT22;8882;53.192;8.184;2022-12-13T20:59:33;-3.50;99.90
17529;DHT22;8882;53.192;8.184;2022-12-13T21:01:58;-3.50;99.90
17529;DHT22;8882;53.192;8.184;2022-12-13T21:04:24;-3.50;99.90
17529;DHT22;8882;53.192;8.184;2022-12-13T21:06:49;-3.50;99.90
17529;DHT22;8882;53.192;8.184;2022-12-13T21:09:15;-3.50;99.90
17529;DHT22;8882;53.192;8.184;2022-12-13T21:11:45;-3.60;99.90
17529;DHT22;8882;53.192;8.184;2022-12-13T21:14:12;-3.50;99.90
17529;DHT22;8882;53.192;8.184;2022-12-13T21:19:16;-3.60;99.90
17529;DHT22;8882;53.192;8.184;2022-12-13T21:21:43;-3.60;99.90
17529;DHT22;8882;53.192;8.184;2022-12-13T21:24:12;-3.60;99.90
17529;DHT22;8882;53.192;8.184;2022-12-13T21:26:38;-3.60;99.90
17529;DHT22;8882;53.192;8.184;2022-12-13T21:29:06;-3.50;99.90
17529;DHT22;8882;53.192;8.184;2022-12-13T21:31:32;-3.50;99.90
17529;DHT22;8882;53.192;8.184;2022-12-13T21:33:59;-3.50;99.90
17529;DHT22;8882;53.192;8.184;2022-12-13T21:36:27;-3.60;99.90
17529;DHT22;8882;53.192;8.184;2022-12-13T21:38:55;-3.60;99.90
17529;DHT22;8882;53.192;8.184;2022-12-13T21:41:22;-3.60;99.90
17529;DHT22;8882;53.192;8.184;2022-12-13T21:43:48;-3.60;99.90
17529;DHT22;8882;53.192;8.184;2022-12-13T21:46:15;-3.60;99.90
17529;DHT22;8882;53.192;8.184;2022-12-13T21:48:42;-3.60;99.90
17529;DHT22;8882;53.192;8.184;2022-12-13T21:51:11;-3.60;99.90
17529;DHT22;8882;53.192;8.184;2022-12-13T21:53:37;-3.70;99.90
17529;DHT22;8882;53.192;8.184;2022-12-13T21:56:07;-3.60;99.90
17529;DHT22;8882;53.192;8.184;2022-12-13T21:58:52;-3.70;99.90
